Main page
METAR-TAF:

METAR-TAF

Airports :

Ben Gurion Airport

Tel Aviv / Ben Gurion, Israel

latitude: 32-00N, longitude: 034-54E, elevation: 40 m

Current weather observation

The report was made 40 minutes ago, at 07:20 UTC
Wind 1 kt from variable directions
Temperature 12°C
Humidity 62%
Pressure 1021 hPa
Visibility 10 km or more
no clouds below 1500 m and no cumulonimbus

METAR: LLBG 200720Z VRB01KT CAVOK 12/05 Q1021 NOSIG

Time: 10:00 (08:00 UTC)

Forecast

The report was made 2 hours and 54 minutes ago, at 05:06 UTC
Forecast valid from 20 at 06 UTC to 21 at 06 UTC
Wind 3 kt from variable directions
Visibility 10 km or more
no clouds below 1500 m and no cumulonimbus
Becoming
from 20 at 07 UTC to 20 at 09 UTC
Wind 6 kt from the West/Northwest
Becoming
from 20 at 16 UTC to 20 at 18 UTC
Wind 3 kt from variable directions

TAF: LLBG 200506Z 2006/2106 VRB03KT CAVOK BECMG 2007/2009 29006KT BECMG 2016/2018 VRB03KT TX18/2012Z TN06/2104Z

Weather observations and forecasts of more than 4000 airports (METAR and TAF reports).

The available stations are represented by yellow and red dots on the map.

Hover mouse over dot to see the name of the station.

Then click to see weather observations and forecasts.

To change the map : click on the green buttons with a black cross to zoom in, on the green button with a dash to zoom out, or on the green arrows for adjacent maps.


METAR-TAF: